sensor_id;sensor_type;location;lat;lon;timestamp;P1;durP1;ratioP1;P2;durP2;ratioP2
18905;SDS011;9585;51.018;4.282;2022-11-20T00:00:25;22.83;;;16.10;;
18905;SDS011;9585;51.018;4.282;2022-11-20T00:02:54;20.07;;;14.03;;
18905;SDS011;9585;51.018;4.282;2022-11-20T00:05:21;17.83;;;13.45;;
18905;SDS011;9585;51.018;4.282;2022-11-20T00:07:48;22.60;;;14.53;;
18905;SDS011;9585;51.018;4.282;2022-11-20T00:10:16;19.83;;;14.43;;
18905;SDS011;9585;51.018;4.282;2022-11-20T00:12:43;21.97;;;15.00;;
18905;SDS011;9585;51.018;4.282;2022-11-20T00:15:10;21.70;;;14.73;;
18905;SDS011;9585;51.018;4.282;2022-11-20T00:17:38;20.07;;;14.27;;
18905;SDS011;9585;51.018;4.282;2022-11-20T00:20:07;20.10;;;14.03;;
18905;SDS011;9585;51.018;4.282;2022-11-20T00:22:35;20.20;;;13.93;;
18905;SDS011;9585;51.018;4.282;2022-11-20T00:25:03;17.55;;;12.85;;
18905;SDS011;9585;51.018;4.282;2022-11-20T00:27:31;20.15;;;14.27;;
18905;SDS011;9585;51.018;4.282;2022-11-20T00:29:58;22.52;;;15.40;;
18905;SDS011;9585;51.018;4.282;2022-11-20T00:32:25;22.48;;;16.00;;
18905;SDS011;9585;51.018;4.282;2022-11-20T00:34:53;23.63;;;16.55;;
18905;SDS011;9585;51.018;4.282;2022-11-20T00:37:21;24.23;;;15.77;;
18905;SDS011;9585;51.018;4.282;2022-11-20T00:39:49;23.90;;;16.17;;
18905;SDS011;9585;51.018;4.282;2022-11-20T00:42:16;23.65;;;15.93;;
18905;SDS011;9585;51.018;4.282;2022-11-20T00:44:44;21.07;;;14.97;;
18905;SDS011;9585;51.018;4.282;2022-11-20T00:47:11;22.83;;;15.53;;
18905;SDS011;9585;51.018;4.282;2022-11-20T00:49:38;23.20;;;15.68;;
18905;SDS011;9585;51.018;4.282;2022-11-20T00:52:06;27.98;;;17.48;;
18905;SDS011;9585;51.018;4.282;2022-11-20T00:54:35;23.73;;;16.88;;
18905;SDS011;9585;51.018;4.282;2022-11-20T00:57:02;24.13;;;17.03;;
18905;SDS011;9585;51.018;4.282;2022-11-20T00:59:29;24.77;;;17.10;;
18905;SDS011;9585;51.018;4.282;2022-11-20T01:01:57;24.35;;;16.38;;
18905;SDS011;9585;51.018;4.282;2022-11-20T01:04:24;26.47;;;17.60;;
18905;SDS011;9585;51.018;4.282;2022-11-20T01:06:51;25.08;;;17.02;;
18905;SDS011;9585;51.018;4.282;2022-11-20T01:09:19;23.20;;;15.33;;
18905;SDS011;9585;51.018;4.282;2022-11-20T01:11:48;23.30;;;16.52;;
18905;SDS011;9585;51.018;4.282;2022-11-20T01:14:16;19.73;;;14.97;;
18905;SDS011;9585;51.018;4.282;2022-11-20T01:16:45;20.33;;;14.77;;
18905;SDS011;9585;51.018;4.282;2022-11-20T01:19:15;22.27;;;15.00;;
18905;SDS011;9585;51.018;4.282;2022-11-20T01:21:43;21.67;;;15.20;;
18905;SDS011;9585;51.018;4.282;2022-11-20T01:24:13;21.85;;;14.95;;
18905;SDS011;9585;51.018;4.282;2022-11-20T01:26:42;22.48;;;14.88;;
18905;SDS011;9585;51.018;4.282;2022-11-20T01:29:13;22.73;;;15.38;;
18905;SDS011;9585;51.018;4.282;2022-11-20T01:31:42;22.55;;;16.25;;
18905;SDS011;9585;51.018;4.282;2022-11-20T01:34:10;22.70;;;15.52;;
18905;SDS011;9585;51.018;4.282;2022-11-20T01:36:39;20.67;;;14.87;;
18905;SDS011;9585;51.018;4.282;2022-11-20T01:39:07;24.75;;;16.02;;
18905;SDS011;9585;51.018;4.282;2022-11-20T01:41:39;22.85;;;16.23;;
18905;SDS011;9585;51.018;4.282;2022-11-20T01:47:24;23.95;;;16.30;;
18905;SDS011;9585;51.018;4.282;2022-11-20T01:49:56;23.05;;;16.40;;
18905;SDS011;9585;51.018;4.282;2022-11-20T01:52:30;24.23;;;16.80;;
18905;SDS011;9585;51.018;4.282;2022-11-20T01:55:02;21.23;;;15.50;;
18905;SDS011;9585;51.018;4.282;2022-11-20T01:57:33;21.33;;;16.17;;
18905;SDS011;9585;51.018;4.282;2022-11-20T02:00:03;23.77;;;15.70;;
18905;SDS011;9585;51.018;4.282;2022-11-20T02:02:35;24.03;;;14.97;;
18905;SDS011;9585;51.018;4.282;2022-11-20T02:05:07;21.03;;;15.83;;
18905;SDS011;9585;51.018;4.282;2022-11-20T02:07:41;24.40;;;17.13;;
18905;SDS011;9585;51.018;4.282;2022-11-20T02:10:09;23.17;;;16.37;;
18905;SDS011;9585;51.018;4.282;2022-11-20T02:12:37;22.00;;;15.77;;
18905;SDS011;9585;51.018;4.282;2022-11-20T02:15:22;26.50;;;17.27;;
18905;SDS011;9585;51.018;4.282;2022-11-20T02:17:51;23.48;;;16.40;;
18905;SDS011;9585;51.018;4.282;2022-11-20T02:20:18;23.40;;;16.20;;
18905;SDS011;9585;51.018;4.282;2022-11-20T02:22:47;27.67;;;18.13;;
18905;SDS011;9585;51.018;4.282;2022-11-20T02:25:21;25.38;;;16.70;;
18905;SDS011;9585;51.018;4.282;2022-11-20T02:27:50;25.10;;;17.02;;
18905;SDS011;9585;51.018;4.282;2022-11-20T02:30:17;29.40;;;18.57;;
18905;SDS011;9585;51.018;4.282;2022-11-20T02:32:45;23.52;;;16.70;;
18905;SDS011;9585;51.018;4.282;2022-11-20T02:38:10;26.30;;;17.52;;
18905;SDS011;9585;51.018;4.282;2022-11-20T02:40:39;24.47;;;16.47;;
18905;SDS011;9585;51.018;4.282;2022-11-20T02:43:07;26.60;;;17.27;;
18905;SDS011;9585;51.018;4.282;2022-11-20T02:45:34;28.00;;;17.83;;
18905;SDS011;9585;51.018;4.282;2022-11-20T02:48:02;32.33;;;20.03;;
18905;SDS011;9585;51.018;4.282;2022-11-20T02:50:29;28.30;;;18.00;;
18905;SDS011;9585;51.018;4.282;2022-11-20T02:52:56;30.55;;;19.35;;
18905;SDS011;9585;51.018;4.282;2022-11-20T02:55:24;29.98;;;19.20;;
18905;SDS011;9585;51.018;4.282;2022-11-20T02:57:52;27.17;;;18.15;;
18905;SDS011;9585;51.018;4.282;2022-11-20T03:00:19;27.70;;;18.50;;
18905;SDS011;9585;51.018;4.282;2022-11-20T03:02:47;31.53;;;20.07;;
18905;SDS011;9585;51.018;4.282;2022-11-20T03:05:14;32.27;;;20.23;;
18905;SDS011;9585;51.018;4.282;2022-11-20T03:07:42;31.20;;;19.30;;
18905;SDS011;9585;51.018;4.282;2022-11-20T03:10:10;31.10;;;20.45;;
18905;SDS011;9585;51.018;4.282;2022-11-20T03:12:37;34.53;;;21.47;;
18905;SDS011;9585;51.018;4.282;2022-11-20T03:15:07;31.33;;;20.53;;
18905;SDS011;9585;51.018;4.282;2022-11-20T03:17:34;34.07;;;20.93;;
18905;SDS011;9585;51.018;4.282;2022-11-20T03:20:02;37.90;;;20.85;;
18905;SDS011;9585;51.018;4.282;2022-11-20T03:22:31;31.63;;;20.75;;
18905;SDS011;9585;51.018;4.282;2022-11-20T03:24:58;34.63;;;21.07;;
18905;SDS011;9585;51.018;4.282;2022-11-20T03:27:25;35.05;;;21.00;;
18905;SDS011;9585;51.018;4.282;2022-11-20T03:29:52;38.17;;;21.67;;
18905;SDS011;9585;51.018;4.282;2022-11-20T03:32:21;39.20;;;22.65;;
18905;SDS011;9585;51.018;4.282;2022-11-20T03:34:48;35.70;;;21.00;;
18905;SDS011;9585;51.018;4.282;2022-11-20T03:37:15;30.87;;;19.50;;
18905;SDS011;9585;51.018;4.282;2022-11-20T03:39:42;31.30;;;18.77;;
18905;SDS011;9585;51.018;4.282;2022-11-20T03:42:10;37.27;;;21.67;;
18905;SDS011;9585;51.018;4.282;2022-11-20T03:44:57;34.33;;;21.13;;
18905;SDS011;9585;51.018;4.282;2022-11-20T03:47:25;29.67;;;18.45;;
18905;SDS011;9585;51.018;4.282;2022-11-20T03:49:53;34.30;;;20.43;;
18905;SDS011;9585;51.018;4.282;2022-11-20T03:52:20;32.83;;;19.67;;
18905;SDS011;9585;51.018;4.282;2022-11-20T03:54:47;29.42;;;18.67;;
18905;SDS011;9585;51.018;4.282;2022-11-20T03:57:14;27.73;;;17.13;;
18905;SDS011;9585;51.018;4.282;2022-11-20T03:59:41;29.70;;;18.90;;
18905;SDS011;9585;51.018;4.282;2022-11-20T04:02:08;31.55;;;18.95;;
18905;SDS011;9585;51.018;4.282;2022-11-20T04:04:37;35.75;;;21.23;;
18905;SDS011;9585;51.018;4.282;2022-11-20T04:07:04;31.63;;;19.58;;
18905;SDS011;9585;51.018;4.282;2022-11-20T04:09:31;30.57;;;18.73;;
18905;SDS011;9585;51.018;4.282;2022-11-20T04:11:59;33.70;;;19.60;;
18905;SDS011;9585;51.018;4.282;2022-11-20T04:14:26;33.27;;;19.90;;
18905;SDS011;9585;51.018;4.282;2022-11-20T04:16:53;33.40;;;19.30;;
18905;SDS011;9585;51.018;4.282;2022-11-20T04:19:20;31.00;;;18.50;;
18905;SDS011;9585;51.018;4.282;2022-11-20T04:21:49;29.77;;;19.15;;
18905;SDS011;9585;51.018;4.282;2022-11-20T04:24:17;28.00;;;18.40;;
18905;SDS011;9585;51.018;4.282;2022-11-20T04:26:44;30.00;;;18.83;;
18905;SDS011;9585;51.018;4.282;2022-11-20T04:29:11;32.60;;;19.60;;
18905;SDS011;9585;51.018;4.282;2022-11-20T04:31:39;30.38;;;17.95;;
18905;SDS011;9585;51.018;4.282;2022-11-20T04:34:06;30.47;;;18.37;;
18905;SDS011;9585;51.018;4.282;2022-11-20T04:36:34;37.10;;;21.65;;
18905;SDS011;9585;51.018;4.282;2022-11-20T04:39:04;29.92;;;18.90;;
18905;SDS011;9585;51.018;4.282;2022-11-20T04:41:33;32.33;;;18.60;;
18905;SDS011;9585;51.018;4.282;2022-11-20T04:44:02;29.33;;;18.23;;
18905;SDS011;9585;51.018;4.282;2022-11-20T04:46:33;28.10;;;17.27;;
18905;SDS011;9585;51.018;4.282;2022-11-20T04:49:02;30.00;;;17.93;;
18905;SDS011;9585;51.018;4.282;2022-11-20T04:51:29;27.02;;;16.73;;
18905;SDS011;9585;51.018;4.282;2022-11-20T04:53:57;28.10;;;17.37;;
18905;SDS011;9585;51.018;4.282;2022-11-20T04:56:26;30.50;;;18.23;;
18905;SDS011;9585;51.018;4.282;2022-11-20T04:58:53;32.43;;;19.13;;
18905;SDS011;9585;51.018;4.282;2022-11-20T05:01:21;31.33;;;18.67;;
18905;SDS011;9585;51.018;4.282;2022-11-20T05:03:50;32.72;;;18.83;;
18905;SDS011;9585;51.018;4.282;2022-11-20T05:06:18;31.10;;;18.67;;
18905;SDS011;9585;51.018;4.282;2022-11-20T05:08:46;31.43;;;18.27;;
18905;SDS011;9585;51.018;4.282;2022-11-20T05:11:15;29.02;;;17.40;;
18905;SDS011;9585;51.018;4.282;2022-11-20T05:13:45;31.47;;;18.07;;
18905;SDS011;9585;51.018;4.282;2022-11-20T05:16:13;31.23;;;19.92;;
18905;SDS011;9585;51.018;4.282;2022-11-20T05:18:41;37.03;;;20.30;;
18905;SDS011;9585;51.018;4.282;2022-11-20T05:21:09;32.40;;;19.23;;
18905;SDS011;9585;51.018;4.282;2022-11-20T05:23:36;36.03;;;21.02;;
18905;SDS011;9585;51.018;4.282;2022-11-20T05:26:08;34.40;;;20.50;;
18905;SDS011;9585;51.018;4.282;2022-11-20T05:28:40;37.78;;;20.90;;
18905;SDS011;9585;51.018;4.282;2022-11-20T05:31:09;36.03;;;20.42;;
18905;SDS011;9585;51.018;4.282;2022-11-20T05:33:39;37.80;;;20.58;;
18905;SDS011;9585;51.018;4.282;2022-11-20T05:36:08;35.05;;;21.33;;
18905;SDS011;9585;51.018;4.282;2022-11-20T05:38:36;35.03;;;20.58;;
18905;SDS011;9585;51.018;4.282;2022-11-20T05:41:04;34.10;;;20.02;;
18905;SDS011;9585;51.018;4.282;2022-11-20T05:43:33;34.63;;;20.17;;
18905;SDS011;9585;51.018;4.282;2022-11-20T05:46:01;32.58;;;19.75;;
18905;SDS011;9585;51.018;4.282;2022-11-20T05:48:32;36.25;;;20.38;;
18905;SDS011;9585;51.018;4.282;2022-11-20T05:51:00;33.10;;;18.90;;
18905;SDS011;9585;51.018;4.282;2022-11-20T05:53:28;30.80;;;18.70;;
18905;SDS011;9585;51.018;4.282;2022-11-20T05:55:56;30.03;;;17.40;;
18905;SDS011;9585;51.018;4.282;2022-11-20T05:58:24;31.57;;;18.33;;
18905;SDS011;9585;51.018;4.282;2022-11-20T06:00:51;34.65;;;19.67;;
18905;SDS011;9585;51.018;4.282;2022-11-20T06:03:19;37.40;;;20.53;;
18905;SDS011;9585;51.018;4.282;2022-11-20T06:05:47;36.73;;;20.93;;
18905;SDS011;9585;51.018;4.282;2022-11-20T06:08:15;40.33;;;21.83;;
18905;SDS011;9585;51.018;4.282;2022-11-20T06:10:42;37.63;;;21.77;;
18905;SDS011;9585;51.018;4.282;2022-11-20T06:13:09;37.20;;;21.30;;
18905;SDS011;9585;51.018;4.282;2022-11-20T06:15:37;34.87;;;19.60;;
18905;SDS011;9585;51.018;4.282;2022-11-20T06:18:04;32.17;;;19.53;;
18905;SDS011;9585;51.018;4.282;2022-11-20T06:20:31;34.37;;;19.03;;
18905;SDS011;9585;51.018;4.282;2022-11-20T06:23:00;37.53;;;20.73;;
18905;SDS011;9585;51.018;4.282;2022-11-20T06:25:27;36.43;;;20.63;;
18905;SDS011;9585;51.018;4.282;2022-11-20T06:27:54;37.33;;;20.98;;
18905;SDS011;9585;51.018;4.282;2022-11-20T06:30:21;35.55;;;19.27;;
18905;SDS011;9585;51.018;4.282;2022-11-20T06:32:48;31.53;;;17.10;;
18905;SDS011;9585;51.018;4.282;2022-11-20T06:35:16;31.92;;;17.90;;
18905;SDS011;9585;51.018;4.282;2022-11-20T06:37:43;35.70;;;19.27;;
18905;SDS011;9585;51.018;4.282;2022-11-20T06:40:12;32.05;;;17.67;;
18905;SDS011;9585;51.018;4.282;2022-11-20T06:42:39;36.83;;;19.17;;
18905;SDS011;9585;51.018;4.282;2022-11-20T06:45:07;35.93;;;20.37;;
18905;SDS011;9585;51.018;4.282;2022-11-20T06:47:35;40.78;;;20.83;;
18905;SDS011;9585;51.018;4.282;2022-11-20T06:50:02;38.40;;;19.80;;
18905;SDS011;9585;51.018;4.282;2022-11-20T06:52:30;36.07;;;19.57;;
18905;SDS011;9585;51.018;4.282;2022-11-20T06:54:57;37.92;;;19.58;;
18905;SDS011;9585;51.018;4.282;2022-11-20T06:57:26;43.17;;;21.33;;
18905;SDS011;9585;51.018;4.282;2022-11-20T06:59:53;40.20;;;19.70;;
18905;SDS011;9585;51.018;4.282;2022-11-20T07:02:21;38.30;;;19.92;;
18905;SDS011;9585;51.018;4.282;2022-11-20T07:04:48;40.75;;;20.58;;
18905;SDS011;9585;51.018;4.282;2022-11-20T07:07:15;40.78;;;20.73;;
18905;SDS011;9585;51.018;4.282;2022-11-20T07:09:43;43.20;;;21.42;;
18905;SDS011;9585;51.018;4.282;2022-11-20T07:12:10;41.55;;;20.17;;
18905;SDS011;9585;51.018;4.282;2022-11-20T07:14:38;44.72;;;21.13;;
18905;SDS011;9585;51.018;4.282;2022-11-20T07:17:06;52.00;;;23.58;;
18905;SDS011;9585;51.018;4.282;2022-11-20T07:19:33;49.13;;;22.37;;
18905;SDS011;9585;51.018;4.282;2022-11-20T07:22:00;47.15;;;23.33;;
18905;SDS011;9585;51.018;4.282;2022-11-20T07:24:27;45.97;;;21.90;;
18905;SDS011;9585;51.018;4.282;2022-11-20T07:26:55;61.83;;;26.00;;
18905;SDS011;9585;51.018;4.282;2022-11-20T07:29:22;55.83;;;25.40;;
18905;SDS011;9585;51.018;4.282;2022-11-20T07:31:51;56.47;;;25.42;;
18905;SDS011;9585;51.018;4.282;2022-11-20T07:34:20;57.85;;;27.77;;
18905;SDS011;9585;51.018;4.282;2022-11-20T07:36:48;54.47;;;26.10;;
18905;SDS011;9585;51.018;4.282;2022-11-20T07:39:15;46.08;;;23.33;;
18905;SDS011;9585;51.018;4.282;2022-11-20T07:41:42;44.35;;;22.63;;
18905;SDS011;9585;51.018;4.282;2022-11-20T07:44:10;51.40;;;22.50;;
18905;SDS011;9585;51.018;4.282;2022-11-20T07:46:37;51.97;;;22.52;;
18905;SDS011;9585;51.018;4.282;2022-11-20T07:49:06;51.00;;;24.35;;
18905;SDS011;9585;51.018;4.282;2022-11-20T07:51:33;47.33;;;22.60;;
18905;SDS011;9585;51.018;4.282;2022-11-20T07:54:00;51.22;;;23.80;;
18905;SDS011;9585;51.018;4.282;2022-11-20T07:56:28;46.50;;;22.83;;
18905;SDS011;9585;51.018;4.282;2022-11-20T07:58:55;46.72;;;23.02;;
18905;SDS011;9585;51.018;4.282;2022-11-20T08:01:22;44.60;;;23.00;;
18905;SDS011;9585;51.018;4.282;2022-11-20T08:03:50;44.80;;;22.42;;
18905;SDS011;9585;51.018;4.282;2022-11-20T08:06:18;43.28;;;21.15;;
18905;SDS011;9585;51.018;4.282;2022-11-20T08:08:46;44.78;;;21.92;;
18905;SDS011;9585;51.018;4.282;2022-11-20T08:11:13;45.28;;;22.67;;
18905;SDS011;9585;51.018;4.282;2022-11-20T08:13:58;44.58;;;21.60;;
18905;SDS011;9585;51.018;4.282;2022-11-20T08:16:41;46.63;;;23.07;;
18905;SDS011;9585;51.018;4.282;2022-11-20T08:19:09;47.78;;;23.17;;
18905;SDS011;9585;51.018;4.282;2022-11-20T08:21:38;43.33;;;21.88;;
18905;SDS011;9585;51.018;4.282;2022-11-20T08:24:06;38.88;;;21.60;;
18905;SDS011;9585;51.018;4.282;2022-11-20T08:26:35;41.75;;;21.17;;
18905;SDS011;9585;51.018;4.282;2022-11-20T08:29:03;41.67;;;21.58;;
18905;SDS011;9585;51.018;4.282;2022-11-20T08:31:31;42.90;;;21.63;;
18905;SDS011;9585;51.018;4.282;2022-11-20T08:33:58;40.92;;;21.75;;
18905;SDS011;9585;51.018;4.282;2022-11-20T08:36:26;40.50;;;21.10;;
18905;SDS011;9585;51.018;4.282;2022-11-20T08:38:55;39.13;;;20.75;;
18905;SDS011;9585;51.018;4.282;2022-11-20T08:41:22;43.08;;;22.20;;
18905;SDS011;9585;51.018;4.282;2022-11-20T08:43:51;40.58;;;20.98;;
18905;SDS011;9585;51.018;4.282;2022-11-20T08:46:19;43.60;;;21.17;;
18905;SDS011;9585;51.018;4.282;2022-11-20T08:48:46;41.67;;;21.50;;
18905;SDS011;9585;51.018;4.282;2022-11-20T08:51:14;37.20;;;20.15;;
18905;SDS011;9585;51.018;4.282;2022-11-20T08:53:41;42.10;;;21.45;;
18905;SDS011;9585;51.018;4.282;2022-11-20T08:56:10;40.33;;;21.20;;
18905;SDS011;9585;51.018;4.282;2022-11-20T08:58:38;43.72;;;22.42;;
18905;SDS011;9585;51.018;4.282;2022-11-20T09:01:05;44.00;;;22.58;;
18905;SDS011;9585;51.018;4.282;2022-11-20T09:03:36;49.20;;;22.90;;
18905;SDS011;9585;51.018;4.282;2022-11-20T09:06:04;51.78;;;24.90;;
18905;SDS011;9585;51.018;4.282;2022-11-20T09:08:32;52.10;;;25.70;;
18905;SDS011;9585;51.018;4.282;2022-11-20T09:11:01;50.97;;;25.35;;
18905;SDS011;9585;51.018;4.282;2022-11-20T09:13:30;51.75;;;24.77;;
18905;SDS011;9585;51.018;4.282;2022-11-20T09:15:59;52.90;;;24.27;;
18905;SDS011;9585;51.018;4.282;2022-11-20T09:18:28;50.15;;;22.98;;
18905;SDS011;9585;51.018;4.282;2022-11-20T09:20:57;45.63;;;22.05;;
18905;SDS011;9585;51.018;4.282;2022-11-20T09:23:25;36.10;;;18.95;;
18905;SDS011;9585;51.018;4.282;2022-11-20T09:25:52;35.55;;;19.70;;
18905;SDS011;9585;51.018;4.282;2022-11-20T09:28:24;42.95;;;24.05;;
18905;SDS011;9585;51.018;4.282;2022-11-20T09:30:53;38.92;;;21.33;;
18905;SDS011;9585;51.018;4.282;2022-11-20T09:33:20;38.58;;;19.95;;
18905;SDS011;9585;51.018;4.282;2022-11-20T09:35:48;36.25;;;19.38;;
18905;SDS011;9585;51.018;4.282;2022-11-20T09:38:15;39.35;;;20.95;;
18905;SDS011;9585;51.018;4.282;2022-11-20T09:40:44;41.92;;;20.65;;
18905;SDS011;9585;51.018;4.282;2022-11-20T09:43:19;37.22;;;18.95;;
18905;SDS011;9585;51.018;4.282;2022-11-20T09:45:58;40.92;;;18.85;;
18905;SDS011;9585;51.018;4.282;2022-11-20T09:48:36;43.47;;;21.00;;
18905;SDS011;9585;51.018;4.282;2022-11-20T09:51:18;40.85;;;18.52;;
18905;SDS011;9585;51.018;4.282;2022-11-20T09:54:00;42.47;;;20.35;;
18905;SDS011;9585;51.018;4.282;2022-11-20T09:56:39;40.40;;;19.67;;
18905;SDS011;9585;51.018;4.282;2022-11-20T09:59:14;38.13;;;19.55;;
18905;SDS011;9585;51.018;4.282;2022-11-20T10:01:56;37.00;;;18.65;;
18905;SDS011;9585;51.018;4.282;2022-11-20T10:04:25;40.78;;;19.10;;
18905;SDS011;9585;51.018;4.282;2022-11-20T10:06:56;38.92;;;19.73;;
18905;SDS011;9585;51.018;4.282;2022-11-20T10:09:31;36.58;;;18.92;;
18905;SDS011;9585;51.018;4.282;2022-11-20T10:12:06;36.30;;;19.05;;
18905;SDS011;9585;51.018;4.282;2022-11-20T10:14:42;34.55;;;20.08;;
18905;SDS011;9585;51.018;4.282;2022-11-20T10:17:24;33.10;;;17.30;;
18905;SDS011;9585;51.018;4.282;2022-11-20T10:20:10;30.45;;;16.88;;
18905;SDS011;9585;51.018;4.282;2022-11-20T10:22:48;31.83;;;17.20;;
18905;SDS011;9585;51.018;4.282;2022-11-20T10:25:26;35.80;;;18.33;;
18905;SDS011;9585;51.018;4.282;2022-11-20T10:28:21;33.65;;;17.98;;
18905;SDS011;9585;51.018;4.282;2022-11-20T10:30:59;27.27;;;15.05;;
18905;SDS011;9585;51.018;4.282;2022-11-20T10:33:31;28.35;;;15.60;;
18905;SDS011;9585;51.018;4.282;2022-11-20T10:36:05;31.33;;;14.73;;
18905;SDS011;9585;51.018;4.282;2022-11-20T10:38:40;27.40;;;14.35;;
18905;SDS011;9585;51.018;4.282;2022-11-20T10:41:16;27.05;;;13.80;;
18905;SDS011;9585;51.018;4.282;2022-11-20T10:43:53;26.33;;;13.73;;
18905;SDS011;9585;51.018;4.282;2022-11-20T10:46:30;25.40;;;13.75;;
18905;SDS011;9585;51.018;4.282;2022-11-20T10:49:09;21.35;;;13.38;;
18905;SDS011;9585;51.018;4.282;2022-11-20T10:51:40;25.20;;;13.15;;
18905;SDS011;9585;51.018;4.282;2022-11-20T10:54:20;22.67;;;13.40;;
18905;SDS011;9585;51.018;4.282;2022-11-20T10:56:55;22.00;;;12.85;;
18905;SDS011;9585;51.018;4.282;2022-11-20T10:59:32;19.92;;;12.02;;
18905;SDS011;9585;51.018;4.282;2022-11-20T11:02:17;20.33;;;11.73;;
18905;SDS011;9585;51.018;4.282;2022-11-20T11:04:48;21.00;;;11.38;;
18905;SDS011;9585;51.018;4.282;2022-11-20T11:07:17;17.63;;;10.32;;
18905;SDS011;9585;51.018;4.282;2022-11-20T11:09:49;12.75;;;8.48;;
18905;SDS011;9585;51.018;4.282;2022-11-20T11:12:18;15.73;;;8.52;;
18905;SDS011;9585;51.018;4.282;2022-11-20T11:14:48;12.55;;;7.13;;
18905;SDS011;9585;51.018;4.282;2022-11-20T11:17:28;13.40;;;7.35;;
18905;SDS011;9585;51.018;4.282;2022-11-20T11:25:19;9.43;;;5.63;;
18905;SDS011;9585;51.018;4.282;2022-11-20T11:27:49;9.10;;;5.00;;
18905;SDS011;9585;51.018;4.282;2022-11-20T11:30:18;6.88;;;4.30;;
18905;SDS011;9585;51.018;4.282;2022-11-20T11:32:46;7.78;;;4.03;;
18905;SDS011;9585;51.018;4.282;2022-11-20T11:35:25;7.30;;;4.30;;
18905;SDS011;9585;51.018;4.282;2022-11-20T11:37:54;9.85;;;4.40;;
18905;SDS011;9585;51.018;4.282;2022-11-20T11:40:29;6.13;;;3.42;;
18905;SDS011;9585;51.018;4.282;2022-11-20T11:42:58;7.43;;;2.92;;
18905;SDS011;9585;51.018;4.282;2022-11-20T11:45:28;6.38;;;3.45;;
18905;SDS011;9585;51.018;4.282;2022-11-20T11:47:55;4.75;;;3.03;;
18905;SDS011;9585;51.018;4.282;2022-11-20T11:50:26;5.28;;;3.00;;
18905;SDS011;9585;51.018;4.282;2022-11-20T11:52:56;3.60;;;2.55;;
18905;SDS011;9585;51.018;4.282;2022-11-20T11:55:35;5.07;;;2.58;;
18905;SDS011;9585;51.018;4.282;2022-11-20T11:58:09;3.47;;;2.50;;
18905;SDS011;9585;51.018;4.282;2022-11-20T12:00:45;4.78;;;2.67;;
18905;SDS011;9585;51.018;4.282;2022-11-20T12:03:19;5.65;;;2.72;;
18905;SDS011;9585;51.018;4.282;2022-11-20T12:05:53;5.80;;;2.50;;
18905;SDS011;9585;51.018;4.282;2022-11-20T12:08:27;3.92;;;2.45;;
18905;SDS011;9585;51.018;4.282;2022-11-20T12:11:00;4.35;;;2.28;;
18905;SDS011;9585;51.018;4.282;2022-11-20T12:13:44;4.43;;;2.13;;
18905;SDS011;9585;51.018;4.282;2022-11-20T12:16:20;4.68;;;2.20;;
18905;SDS011;9585;51.018;4.282;2022-11-20T12:18:51;5.30;;;2.17;;
18905;SDS011;9585;51.018;4.282;2022-11-20T12:21:23;5.22;;;2.30;;
18905;SDS011;9585;51.018;4.282;2022-11-20T12:24:10;5.50;;;2.22;;
18905;SDS011;9585;51.018;4.282;2022-11-20T12:26:55;4.75;;;2.15;;
18905;SDS011;9585;51.018;4.282;2022-11-20T12:29:33;5.93;;;2.40;;
18905;SDS011;9585;51.018;4.282;2022-11-20T12:35:21;3.45;;;1.92;;
18905;SDS011;9585;51.018;4.282;2022-11-20T12:38:03;5.20;;;2.50;;
18905;SDS011;9585;51.018;4.282;2022-11-20T12:40:40;5.93;;;2.72;;
18905;SDS011;9585;51.018;4.282;2022-11-20T12:43:19;5.95;;;3.63;;
18905;SDS011;9585;51.018;4.282;2022-11-20T12:46:09;7.07;;;3.30;;
18905;SDS011;9585;51.018;4.282;2022-11-20T12:48:58;6.82;;;3.30;;
18905;SDS011;9585;51.018;4.282;2022-11-20T12:51:34;6.38;;;3.00;;
18905;SDS011;9585;51.018;4.282;2022-11-20T12:54:32;7.05;;;3.83;;
18905;SDS011;9585;51.018;4.282;2022-11-20T12:57:15;8.02;;;3.97;;
18905;SDS011;9585;51.018;4.282;2022-11-20T12:59:55;8.15;;;4.13;;
18905;SDS011;9585;51.018;4.282;2022-11-20T13:02:33;7.95;;;4.10;;
18905;SDS011;9585;51.018;4.282;2022-11-20T13:05:13;5.80;;;3.70;;
18905;SDS011;9585;51.018;4.282;2022-11-20T13:07:46;6.00;;;3.38;;
18905;SDS011;9585;51.018;4.282;2022-11-20T13:10:20;7.97;;;4.25;;
18905;SDS011;9585;51.018;4.282;2022-11-20T13:12:54;7.13;;;4.03;;
18905;SDS011;9585;51.018;4.282;2022-11-20T13:15:31;6.22;;;3.85;;
18905;SDS011;9585;51.018;4.282;2022-11-20T13:18:08;7.35;;;4.00;;
18905;SDS011;9585;51.018;4.282;2022-11-20T13:20:40;7.63;;;3.72;;
18905;SDS011;9585;51.018;4.282;2022-11-20T13:23:09;5.60;;;3.60;;
18905;SDS011;9585;51.018;4.282;2022-11-20T13:25:39;7.75;;;4.32;;
18905;SDS011;9585;51.018;4.282;2022-11-20T13:30:56;4.32;;;3.38;;
18905;SDS011;9585;51.018;4.282;2022-11-20T13:33:26;5.50;;;3.88;;
18905;SDS011;9585;51.018;4.282;2022-11-20T13:35:57;6.50;;;4.07;;
18905;SDS011;9585;51.018;4.282;2022-11-20T13:38:26;5.78;;;3.28;;
18905;SDS011;9585;51.018;4.282;2022-11-20T13:40:55;5.93;;;3.45;;
18905;SDS011;9585;51.018;4.282;2022-11-20T13:43:28;5.57;;;4.63;;
18905;SDS011;9585;51.018;4.282;2022-11-20T13:46:02;6.68;;;4.40;;
18905;SDS011;9585;51.018;4.282;2022-11-20T13:48:31;4.18;;;3.17;;
18905;SDS011;9585;51.018;4.282;2022-11-20T13:56:50;3.92;;;3.40;;
18905;SDS011;9585;51.018;4.282;2022-11-20T13:59:32;4.80;;;2.58;;
18905;SDS011;9585;51.018;4.282;2022-11-20T14:02:10;2.63;;;2.20;;
18905;SDS011;9585;51.018;4.282;2022-11-20T14:04:41;2.30;;;1.98;;
18905;SDS011;9585;51.018;4.282;2022-11-20T14:07:12;2.13;;;1.75;;
18905;SDS011;9585;51.018;4.282;2022-11-20T14:09:48;3.38;;;1.98;;
18905;SDS011;9585;51.018;4.282;2022-11-20T14:12:20;2.63;;;2.10;;
18905;SDS011;9585;51.018;4.282;2022-11-20T14:14:50;4.78;;;2.22;;
18905;SDS011;9585;51.018;4.282;2022-11-20T14:17:19;3.38;;;2.63;;
18905;SDS011;9585;51.018;4.282;2022-11-20T14:19:47;3.55;;;2.42;;
18905;SDS011;9585;51.018;4.282;2022-11-20T14:22:18;2.83;;;2.20;;
18905;SDS011;9585;51.018;4.282;2022-11-20T14:24:47;2.47;;;1.80;;
18905;SDS011;9585;51.018;4.282;2022-11-20T14:27:15;2.75;;;2.03;;
18905;SDS011;9585;51.018;4.282;2022-11-20T14:29:47;2.10;;;1.90;;
18905;SDS011;9585;51.018;4.282;2022-11-20T14:32:16;3.45;;;2.10;;
18905;SDS011;9585;51.018;4.282;2022-11-20T14:34:46;2.72;;;1.90;;
18905;SDS011;9585;51.018;4.282;2022-11-20T14:37:17;3.53;;;2.00;;
18905;SDS011;9585;51.018;4.282;2022-11-20T14:39:49;2.10;;;1.92;;
18905;SDS011;9585;51.018;4.282;2022-11-20T14:42:19;2.00;;;1.80;;
18905;SDS011;9585;51.018;4.282;2022-11-20T14:44:49;2.67;;;2.03;;
18905;SDS011;9585;51.018;4.282;2022-11-20T14:47:19;2.05;;;1.85;;
18905;SDS011;9585;51.018;4.282;2022-11-20T14:49:49;2.20;;;2.00;;
18905;SDS011;9585;51.018;4.282;2022-11-20T14:52:19;3.20;;;1.77;;
18905;SDS011;9585;51.018;4.282;2022-11-20T14:54:48;2.67;;;2.28;;
18905;SDS011;9585;51.018;4.282;2022-11-20T14:57:21;3.17;;;2.45;;
18905;SDS011;9585;51.018;4.282;2022-11-20T14:59:51;3.55;;;3.15;;
18905;SDS011;9585;51.018;4.282;2022-11-20T15:02:34;5.18;;;3.53;;
18905;SDS011;9585;51.018;4.282;2022-11-20T15:05:05;6.13;;;5.63;;
18905;SDS011;9585;51.018;4.282;2022-11-20T15:07:33;4.50;;;2.85;;
18905;SDS011;9585;51.018;4.282;2022-11-20T15:10:03;3.85;;;3.55;;
18905;SDS011;9585;51.018;4.282;2022-11-20T15:12:32;4.65;;;4.22;;
18905;SDS011;9585;51.018;4.282;2022-11-20T15:15:04;3.33;;;3.03;;
18905;SDS011;9585;51.018;4.282;2022-11-20T15:17:32;4.10;;;2.80;;
18905;SDS011;9585;51.018;4.282;2022-11-20T15:20:05;3.60;;;2.80;;
18905;SDS011;9585;51.018;4.282;2022-11-20T15:22:38;4.93;;;3.25;;